createdAt,value
2022-10-11T08:29:32.960Z,100942.56
2022-10-11T08:31:36.890Z,100942.56
2022-10-11T08:33:39.859Z,100917.63
2022-10-11T08:35:42.295Z,100917.12
2022-10-11T08:37:44.844Z,100919.31
2022-10-11T08:39:47.352Z,100920.06
2022-10-11T08:41:56.962Z,100929.16
2022-10-11T08:44:20.885Z,100928.34
2022-10-11T08:46:29.151Z,100928.50
2022-10-11T08:48:49.471Z,100921.47
2022-10-11T08:50:54.405Z,100907.38
2022-10-11T08:53:02.598Z,100911.41
2022-10-11T08:55:08.337Z,100921.41
2022-10-11T08:57:25.981Z,100917.88
2022-10-11T08:59:31.022Z,100922.84
2022-10-11T09:01:33.399Z,100925.78
2022-10-11T09:03:42.582Z,100925.78
2022-10-11T09:05:58.211Z,100927.75
2022-10-11T09:08:19.591Z,100922.88
2022-10-11T09:10:55.014Z,100927.69
2022-10-11T09:13:31.482Z,100930.31
2022-10-11T09:15:56.633Z,100928.09
2022-10-11T09:18:05.029Z,100933.38
2022-10-11T09:20:10.223Z,100928.75
2022-10-11T09:22:30.371Z,100940.22
2022-10-11T09:25:05.796Z,100939.72
2022-10-11T09:27:50.319Z,100933.66
2022-10-11T09:30:05.049Z,100942.22
2022-10-11T09:32:15.361Z,100940.69
2022-10-11T09:34:18.696Z,100957.28
2022-10-11T09:36:23.919Z,100954.72
2022-10-11T09:39:06.627Z,100946.63
2022-10-11T09:41:24.890Z,100945.37
2022-10-11T09:43:27.696Z,100948.97
2022-10-11T09:45:30.000Z,100943.47
2022-10-11T09:47:33.147Z,100939.03
2022-10-11T09:49:42.666Z,100940.66
2022-10-11T09:51:55.642Z,100937.22
2022-10-11T09:53:59.510Z,100940.41
2022-10-11T09:56:04.579Z,100950.22
2022-10-11T09:58:25.422Z,100957.28
2022-10-11T10:00:33.582Z,100953.97
2022-10-11T10:02:44.363Z,100957.84
2022-10-11T10:04:55.828Z,100964.69
2022-10-11T10:07:12.918Z,100987.47
2022-10-11T10:09:24.333Z,100980.88
2022-10-11T10:11:37.249Z,100972.56
2022-10-11T10:13:53.540Z,100964.34
2022-10-11T10:16:01.365Z,100963.41
2022-10-11T10:18:10.552Z,100962.72
2022-10-11T10:20:31.685Z,100983.19
2022-10-11T10:22:35.873Z,100971.75
2022-10-11T10:24:41.344Z,100975.34
2022-10-11T10:27:06.319Z,100987.66
2022-10-11T10:29:08.743Z,101001.28
2022-10-11T10:31:23.114Z,101006.50
2022-10-11T10:33:30.126Z,101017.50
2022-10-11T10:35:48.615Z,100999.75
2022-10-11T10:37:50.776Z,100992.44
2022-10-11T10:40:01.973Z,100987.44
2022-10-11T10:45:59.338Z,100988.31
2022-10-11T10:48:07.849Z,100990.22
2022-10-11T10:50:21.712Z,100994.81
2022-10-11T10:52:47.667Z,101007.53
2022-10-11T10:55:22.936Z,101004.88
2022-10-11T10:57:40.269Z,101018.50
2022-10-11T11:00:10.405Z,101018.09
2022-10-11T11:02:40.200Z,101024.63
2022-10-11T11:07:28.685Z,101020.59
2022-10-11T11:10:00.791Z,101027.91
2022-10-11T11:12:14.260Z,101015.75
2022-10-11T11:14:59.561Z,101042.12
2022-10-11T11:17:05.992Z,101045.41
2022-10-11T11:19:23.839Z,101056.03
2022-10-11T11:21:39.107Z,101068.91
2022-10-11T11:23:56.279Z,101083.38
2022-10-11T11:26:10.887Z,101087.44
2022-10-11T11:28:25.259Z,101080.44
2022-10-11T11:30:36.884Z,101077.34
2022-10-11T11:33:09.860Z,101085.63
2022-10-11T11:35:24.270Z,101083.44
2022-10-11T11:37:32.418Z,101084.37
2022-10-11T11:39:43.407Z,101076.69
2022-10-11T11:41:59.251Z,101080.72
2022-10-11T11:44:28.101Z,101051.19
2022-10-11T11:46:47.308Z,101034.66
2022-10-11T11:48:52.261Z,101041.03
2022-10-11T11:51:07.845Z,101027.72
2022-10-11T11:53:25.198Z,101039.91
2022-10-11T11:55:42.564Z,101062.38
2022-10-11T11:57:59.435Z,101071.31
2022-10-11T12:00:12.788Z,101067.44
2022-10-11T12:02:38.495Z,101064.44
2022-10-11T12:04:44.169Z,101048.97
2022-10-11T12:07:15.474Z,101051.97
2022-10-11T12:09:18.608Z,101051.66
2022-10-11T12:11:26.112Z,101053.53
2022-10-11T12:13:37.117Z,101044.09
2022-10-11T12:15:39.870Z,101040.75
2022-10-11T12:17:57.769Z,101033.06
2022-10-11T12:20:25.764Z,101026.06
2022-10-11T12:22:28.151Z,101030.41
2022-10-11T12:24:55.259Z,101020.84
2022-10-11T12:26:59.036Z,101025.28
2022-10-11T12:29:42.301Z,101000.88
2022-10-11T12:31:50.243Z,101007.56
2022-10-11T12:34:00.471Z,100990.94
2022-10-11T12:36:21.840Z,100976.00
2022-10-11T12:38:33.137Z,100959.00
2022-10-11T12:40:37.488Z,100946.00
2022-10-11T12:43:11.593Z,100938.91
2022-10-11T12:45:13.710Z,100932.66
2022-10-11T12:47:42.997Z,100929.34
2022-10-11T12:49:51.650Z,100914.97
2022-10-11T12:51:53.841Z,100925.44
2022-10-11T12:54:26.806Z,100907.44
2022-10-11T12:56:56.778Z,100909.59
2022-10-11T12:59:06.376Z,100908.16
2022-10-11T13:01:13.880Z,100909.38
2022-10-11T13:03:34.747Z,100915.81
2022-10-11T13:05:49.709Z,100913.75
2022-10-11T13:07:59.115Z,100909.59
2022-10-11T13:10:05.022Z,100923.84
2022-10-11T13:12:13.274Z,100911.00
2022-10-11T13:14:21.818Z,100912.38
2022-10-11T13:16:28.330Z,100910.63
2022-10-11T13:18:30.613Z,100912.59
2022-10-11T13:20:37.533Z,100920.38
2022-10-11T13:22:44.271Z,100918.59
2022-10-11T13:24:46.743Z,100910.56
2022-10-11T13:26:51.437Z,100918.28
2022-10-11T13:28:54.010Z,100920.69
2022-10-11T13:30:58.568Z,100933.31
2022-10-11T13:33:05.414Z,100924.16
2022-10-11T13:35:21.044Z,100924.78
2022-10-11T13:37:28.422Z,100933.47
2022-10-11T13:39:36.342Z,100929.91
2022-10-11T13:41:38.910Z,100931.03
2022-10-11T13:43:41.360Z,100944.56
2022-10-11T13:45:43.635Z,100961.16
2022-10-11T13:47:48.304Z,100967.00
2022-10-11T13:50:01.791Z,100969.56
2022-10-11T13:52:19.426Z,100970.66
2022-10-11T13:54:22.035Z,100962.13
2022-10-11T13:56:25.320Z,100957.22
2022-10-11T13:58:30.151Z,100965.69
2022-10-11T14:00:36.783Z,100952.97
2022-10-11T14:02:39.859Z,100953.41
2022-10-11T14:04:42.129Z,100957.97
2022-10-11T14:06:48.105Z,100947.72
2022-10-11T14:08:56.199Z,100947.19
2022-10-11T14:11:02.479Z,100919.13
2022-10-11T14:13:34.454Z,100928.13
2022-10-11T14:15:38.201Z,100914.50
2022-10-11T14:17:43.750Z,100918.13
2022-10-11T14:19:48.711Z,100911.97
2022-10-11T14:21:53.043Z,100898.13
2022-10-11T14:24:00.113Z,100908.16
2022-10-11T14:26:02.541Z,100906.66
2022-10-11T14:28:11.967Z,100908.34
2022-10-11T14:30:25.771Z,100899.03
2022-10-11T14:32:34.180Z,100897.84
2022-10-11T14:34:37.062Z,100904.94
2022-10-11T14:36:39.343Z,100899.53
2022-10-11T14:38:41.792Z,100896.56
2022-10-11T14:40:44.285Z,100888.59
2022-10-11T14:42:47.201Z,100889.94
2022-10-11T14:44:49.470Z,100890.06
2022-10-11T14:46:54.521Z,100896.72
2022-10-11T14:48:57.342Z,100904.66
2022-10-11T14:51:01.340Z,100892.19
2022-10-11T14:53:05.855Z,100893.84
2022-10-11T14:55:08.068Z,100898.75
2022-10-11T14:57:12.176Z,100888.56
2022-10-11T14:59:17.654Z,100892.19
2022-10-11T15:01:19.930Z,100894.34
2022-10-11T15:03:22.224Z,100888.22
2022-10-11T15:05:31.137Z,100886.28
2022-10-11T15:07:35.834Z,100887.50
2022-10-11T15:09:38.354Z,100900.72
2022-10-11T15:11:40.810Z,100891.22
2022-10-11T15:13:43.188Z,100895.44
2022-10-11T15:15:45.567Z,100888.44
2022-10-11T15:17:56.136Z,100899.66
2022-10-11T15:19:58.625Z,100897.38
2022-10-11T15:22:02.362Z,100896.06
2022-10-11T15:24:04.991Z,100899.56
2022-10-11T15:26:07.680Z,100898.47
2022-10-11T15:28:35.936Z,100897.50
2022-10-11T15:30:41.569Z,100896.56
2022-10-11T15:32:47.673Z,100893.09
2022-10-11T15:34:50.190Z,100890.78
2022-10-11T15:36:52.805Z,100892.00
2022-10-11T15:39:00.345Z,100902.59
2022-10-11T15:41:03.404Z,100899.81
2022-10-11T15:43:05.994Z,100909.78
2022-10-11T15:45:11.232Z,100903.41
2022-10-11T15:47:17.070Z,100901.59
2022-10-11T15:49:19.678Z,100908.97
2022-10-11T15:51:22.076Z,100911.63
2022-10-11T15:53:28.722Z,100911.94
2022-10-11T15:55:32.809Z,100918.47
2022-10-11T15:57:35.056Z,100914.63
2022-10-11T15:59:37.444Z,100921.09
2022-10-11T16:01:40.112Z,100920.75
2022-10-11T16:03:43.965Z,100922.53
2022-10-11T16:05:46.390Z,100917.12
2022-10-11T16:07:48.754Z,100920.00
2022-10-11T16:09:51.314Z,100919.28
2022-10-11T16:11:53.641Z,100922.78
2022-10-11T16:13:55.845Z,100921.44
2022-10-11T16:16:04.647Z,100918.69
2022-10-11T16:18:13.204Z,100929.06
2022-10-11T16:20:18.644Z,100927.84
2022-10-11T16:22:22.233Z,100926.50
2022-10-11T16:24:24.481Z,100930.59
2022-10-11T16:26:29.284Z,100933.13
2022-10-11T16:28:32.601Z,100930.47
2022-10-11T16:30:39.543Z,100931.78
2022-10-11T16:32:42.206Z,100926.97
2022-10-11T16:34:44.677Z,100948.59
2022-10-11T16:36:48.907Z,100937.00
2022-10-11T16:38:53.243Z,100948.47
2022-10-11T16:40:58.521Z,100950.22
2022-10-11T16:43:07.945Z,100950.28
2022-10-11T16:45:11.790Z,100954.19
2022-10-11T16:47:15.845Z,100957.78
2022-10-11T16:49:22.079Z,100952.94
2022-10-11T16:51:24.900Z,100950.03
2022-10-11T16:53:27.487Z,100953.62
2022-10-11T16:55:29.781Z,100948.09
2022-10-11T16:57:32.043Z,100948.94
2022-10-11T16:59:34.737Z,100960.28
2022-10-11T17:01:37.038Z,100956.47
2022-10-11T17:03:39.673Z,100959.63
2022-10-11T17:05:42.179Z,100956.72
2022-10-11T17:07:44.574Z,100960.69
2022-10-11T17:09:48.744Z,100964.75
2022-10-11T17:11:52.154Z,100959.19
2022-10-11T17:13:55.559Z,100964.25
2022-10-11T17:15:58.352Z,100967.00
2022-10-11T17:18:02.910Z,100960.88
2022-10-11T17:20:05.623Z,100965.94
2022-10-11T17:22:11.794Z,100966.28
2022-10-11T17:24:14.320Z,100959.66
2022-10-11T17:26:21.041Z,100952.22
2022-10-11T17:28:23.968Z,100953.88
2022-10-11T17:30:26.577Z,100937.50
2022-10-11T17:32:29.007Z,100938.63
2022-10-11T17:34:32.075Z,100940.09
2022-10-11T17:36:34.849Z,100943.00
2022-10-11T17:38:37.142Z,100946.41
2022-10-11T17:40:39.365Z,100937.22
2022-10-11T17:42:41.949Z,100933.50
2022-10-11T17:44:44.327Z,100931.44
2022-10-11T17:46:47.598Z,100921.84
2022-10-11T17:48:52.389Z,100920.69
2022-10-11T17:50:55.138Z,100917.44
2022-10-11T17:52:57.818Z,100904.56
2022-10-11T17:55:00.611Z,100905.97
2022-10-11T17:57:03.315Z,100903.50
2022-10-11T17:59:06.738Z,100910.47
2022-10-11T18:01:13.134Z,100908.53
2022-10-11T18:03:15.648Z,100901.41
2022-10-11T18:05:18.050Z,100905.00
2022-10-11T18:07:20.465Z,100906.38
2022-10-11T18:09:24.777Z,100897.69
2022-10-11T18:11:27.120Z,100899.62
2022-10-11T18:13:29.901Z,100897.06
2022-10-11T18:15:32.829Z,100898.31
2022-10-11T18:17:35.137Z,100891.59
2022-10-11T18:19:37.836Z,100896.66
2022-10-11T18:21:41.176Z,100900.25
2022-10-11T18:23:43.766Z,100893.19
2022-10-11T18:25:49.273Z,100890.38
2022-10-11T18:27:52.990Z,100882.13
2022-10-11T18:29:55.671Z,100886.59
2022-10-11T18:31:58.325Z,100888.19
2022-10-11T18:34:02.240Z,100891.47
2022-10-11T18:36:07.644Z,100889.22
2022-10-11T18:38:10.327Z,100889.41
2022-10-11T18:40:13.001Z,100899.34
2022-10-11T18:42:15.698Z,100897.03
2022-10-11T18:44:18.462Z,100893.88
2022-10-11T18:46:22.404Z,100898.75
2022-10-11T18:48:24.816Z,100895.25
2022-10-11T18:50:27.522Z,100894.50
2022-10-11T18:52:30.458Z,100890.19
2022-10-11T18:54:33.130Z,100887.69
2022-10-11T18:56:37.077Z,100894.91
2022-10-11T18:58:41.069Z,100898.81
2022-10-11T19:00:43.657Z,100911.50
2022-10-11T19:02:46.700Z,100913.62
2022-10-11T19:04:53.010Z,100915.22
2022-10-11T19:06:55.458Z,100911.31
2022-10-11T19:09:03.872Z,100910.47
2022-10-11T19:11:12.849Z,100910.97
2022-10-11T19:13:15.439Z,100910.78
2022-10-11T19:15:17.718Z,100909.31
2022-10-11T19:17:22.891Z,100907.81
2022-10-11T19:19:27.645Z,100909.09
2022-10-11T19:21:30.388Z,100907.19
2022-10-11T19:23:43.610Z,100908.69
2022-10-11T19:25:46.256Z,100919.66
2022-10-11T19:27:48.625Z,100911.66
2022-10-11T19:29:51.188Z,100906.25
2022-10-11T19:31:56.656Z,100906.16
2022-10-11T19:33:59.094Z,100903.94
2022-10-11T19:36:05.121Z,100895.63
2022-10-11T19:38:10.127Z,100901.13
2022-10-11T19:40:12.883Z,100895.94
2022-10-11T19:42:17.718Z,100902.69
2022-10-11T19:44:20.588Z,100904.47
2022-10-11T19:46:44.525Z,100904.13
2022-10-11T19:48:45.390Z,100907.00
2022-10-11T19:50:47.651Z,100911.53
2022-10-11T19:52:50.270Z,100914.25
2022-10-11T19:54:53.342Z,100912.81
2022-10-11T19:56:58.061Z,100910.28
2022-10-11T19:59:01.347Z,100917.88
2022-10-11T20:01:07.477Z,100920.91
2022-10-11T20:03:10.211Z,100911.87
2022-10-11T20:05:12.865Z,100925.25
2022-10-11T20:07:15.212Z,100918.19
2022-10-11T20:09:29.095Z,100914.91
2022-10-11T20:11:32.606Z,100933.91
2022-10-11T20:13:37.251Z,100935.28
2022-10-11T20:15:39.975Z,100929.50
2022-10-11T20:17:48.349Z,100933.81
2022-10-11T20:19:50.754Z,100927.25
2022-10-11T20:21:56.686Z,100928.75
2022-10-11T20:24:01.677Z,100917.66
2022-10-11T20:26:11.219Z,100924.63
2022-10-11T20:28:13.880Z,100918.09
2022-10-11T20:30:16.296Z,100910.19
2022-10-11T20:32:18.529Z,100899.62
2022-10-11T20:34:21.010Z,100906.09
2022-10-11T20:36:25.284Z,100893.00
2022-10-11T20:38:29.270Z,100899.97
2022-10-11T20:40:31.974Z,100894.13
2022-10-11T20:42:34.200Z,100887.47
2022-10-11T20:44:36.421Z,100885.97
2022-10-11T20:46:39.502Z,100883.44
2022-10-11T20:48:42.349Z,100884.41
2022-10-11T20:50:45.324Z,100881.13
2022-10-11T20:52:48.113Z,100881.75
2022-10-11T20:54:50.400Z,100877.37
2022-10-11T20:56:52.647Z,100891.50
2022-10-11T20:58:56.642Z,100888.72
2022-10-11T21:00:59.088Z,100888.13
2022-10-11T21:03:03.884Z,100888.22
2022-10-11T21:05:06.981Z,100893.97
2022-10-11T21:07:09.255Z,100897.22
2022-10-11T21:09:14.033Z,100891.78
2022-10-11T21:11:18.914Z,100895.06
2022-10-11T21:13:21.616Z,100893.38
2022-10-11T21:15:24.131Z,100895.47
2022-10-11T21:17:26.644Z,100896.38
2022-10-11T21:19:28.908Z,100896.69
2022-10-11T21:21:31.350Z,100896.12
2022-10-11T21:23:34.599Z,100895.72
2022-10-11T21:25:37.769Z,100898.25
2022-10-11T21:27:40.344Z,100900.03
2022-10-11T21:29:43.777Z,100899.97
2022-10-11T21:31:45.978Z,100908.84
2022-10-11T21:33:48.700Z,100901.31
2022-10-11T21:35:51.209Z,100906.28
2022-10-11T21:37:58.145Z,100902.69
2022-10-11T21:40:00.354Z,100900.72
2022-10-11T21:42:03.168Z,100897.38
